Texarkana Regional Webb Field
KTXK : now visible

Aeroporto :











RITROVATECI SU...

 
LOGIN :

Iscrizione | Disclaimer

   EN    FR    IT 

 









Sommario :    VFR   VFR Marginale   IFR   IFR Intensivo   IFR Molto Intensivo
Visibilità : 
Base nubi : 
>= 8 km
>= 3000ft
5 / 8 km
1000 / 3000 ft
1500m / 5 km
500 / 1000 ft
800 / 1500m
200 / 500 ft
< 800m
< 200 ft
Simboli :   Temporali  Nebbia  Neve Forte  Precipitazioni Forti  Vento > 20 kt






- Altitudine del aeroporto : 390 ft
- Codice IATA : TXK


KTXK - Texarkana Regional Webb Field

ULTIMO METAR :
  • 131353Z 23003KT 10SM CLR M05/M08 A3038 RMK AO2 SLP292 T10501083

METARs OBSOLETI :
  • 131253Z 00000KT 10SM CLR M07/M09 A3037 RMK AO2 SLP287 T10721089
  • 131153Z 00000KT 10SM CLR M07/M09 A3036 RMK AO2 SLP283 T10721089 11044 21072 58011

TAF KTXK
Valido dal 13 a 12 ore il 14 a 12 ore UTC


131124Z 1312/1412 VRB03KT P6SM SKC
FM131400 17006KT P6SM SCT250
FM140300 17004KT P6SM BKN250
FM140800 13004KT P6SM VCSH OVC100



MetMap, La meteo Aeronautica in un colpo d'occhio ! - Copyright ORBIFLY Dicembre 2007 - Disclaimer

ORBIFLY MET'MAP TEAM :

Programmazione e sviluppo : Alexandra Zaïnal
Concezione e sviluppo : Baudouin d'Aumeries
Co-Programmazione e sviluppo : Marc-Olivier Méhu
Supporto tecnico e logistico : Manuel Goepfert
Aiuto per la traduzione : Arnaldo La Scala

Contatto : metmap@orbifly.com




FONTI E CREDITI :

   NOAA       Earth
Advisory